Time;durP1;ratioP1;P1;durP2;ratioP2;P2;SDS_P1;SDS_P2;PMS_P1;PMS_P2;Temp;Humidity;BMP_temperature;BMP_pressure;BME280_temperature;BME280_humidity;BME280_pressure;Samples;Min_cycle;Max_cycle;Signal;HPM_P1;HPM_P2
2022/07/31 00:01:30;;;;;;;17.63;9.95;;;;;;;19.32;83.32;93809.91;5125621;28;20071;-76
2022/07/31 00:03:56;;;;;;;14.77;9.65;;;;;;;19.33;82.14;93802.56;5125543;28;20282;-76
2022/07/31 00:06:22;;;;;;;13.23;9.70;;;;;;;19.27;80.72;93802.09;5125390;28;20024;-76
2022/07/31 00:08:48;;;;;;;15.00;11.27;;;;;;;19.23;82.26;93802.09;5125612;28;20027;-76
2022/07/31 00:11:13;;;;;;;12.10;10.43;;;;;;;19.20;82.51;93802.03;5125453;28;20088;-76
2022/07/31 00:13:39;;;;;;;21.75;10.80;;;;;;;19.23;82.29;93787.78;5125416;28;20321;-77
2022/07/31 00:16:04;;;;;;;13.60;11.38;;;;;;;19.28;82.86;93778.59;5125270;28;20031;-76
2022/07/31 00:18:31;;;;;;;14.70;10.80;;;;;;;19.33;83.00;93800.63;5125089;28;20106;-76
2022/07/31 00:20:57;;;;;;;18.00;11.02;;;;;;;19.32;82.24;93807.19;5125188;28;20031;-77
2022/07/31 00:23:22;;;;;;;13.25;10.50;;;;;;;19.32;81.90;93818.00;5125056;28;20088;-77
2022/07/31 00:25:48;;;;;;;17.67;11.88;;;;;;;19.29;80.81;93824.13;5125235;28;20070;-77
2022/07/31 00:28:13;;;;;;;18.38;10.27;;;;;;;19.22;80.99;93829.47;5124892;28;20047;-77
2022/07/31 00:30:39;;;;;;;15.43;10.98;;;;;;;19.08;79.61;93826.59;5125008;28;20019;-78
2022/07/31 00:33:04;;;;;;;14.75;11.43;;;;;;;18.97;79.44;93832.66;5125070;28;20457;-77
2022/07/31 00:35:29;;;;;;;16.02;11.57;;;;;;;18.86;80.18;93818.22;5124842;28;20340;-76
2022/07/31 00:37:55;;;;;;;17.58;11.95;;;;;;;18.82;81.04;93820.09;5124887;28;20031;-77
2022/07/31 00:40:20;;;;;;;18.65;12.77;;;;;;;18.81;81.59;93823.94;5124981;28;20023;-76
2022/07/31 00:42:46;;;;;;;13.68;11.10;;;;;;;18.82;82.06;93820.09;5124776;27;20090;-76
2022/07/31 00:45:11;;;;;;;14.60;11.50;;;;;;;18.82;82.47;93817.41;5124665;28;20072;-76
2022/07/31 00:47:37;;;;;;;20.13;12.00;;;;;;;18.84;82.37;93831.31;5124537;28;20061;-76
2022/07/31 00:50:03;;;;;;;17.60;11.40;;;;;;;18.88;81.73;93831.34;5124515;28;20080;-77
2022/07/31 00:52:28;;;;;;;23.63;12.45;;;;;;;18.86;81.25;93817.44;5124416;27;20033;-77
2022/07/31 00:54:54;;;;;;;16.13;10.77;;;;;;;18.86;80.59;93823.63;5124316;28;20023;-76
2022/07/31 00:57:20;;;;;;;16.70;10.32;;;;;;;18.80;79.74;93825.84;5124612;28;20028;-76
2022/07/31 00:59:45;;;;;;;17.75;10.68;;;;;;;18.73;80.44;93819.56;5124315;28;20016;-76
2022/07/31 01:02:11;;;;;;;21.73;9.32;;;;;;;18.70;80.44;93821.06;5124259;28;20082;-76
2022/07/31 01:04:36;;;;;;;11.82;9.35;;;;;;;18.65;79.65;93816.00;5124342;27;20038;-76
2022/07/31 01:07:02;;;;;;;16.60;10.70;;;;;;;18.60;80.03;93821.69;5124209;28;20218;-76
2022/07/31 01:09:28;;;;;;;16.27;9.95;;;;;;;18.67;80.36;93832.59;5124208;28;20023;-76
2022/07/31 01:12:11;;;;;;;14.27;11.27;;;;;;;18.65;80.09;93827.56;5124015;28;20030;-76
2022/07/31 01:15:08;;;;;;;13.32;9.85;;;;;;;18.65;79.82;93837.59;5124265;28;20043;-76
2022/07/31 01:17:37;;;;;;;18.35;9.80;;;;;;;18.60;80.00;93832.50;5119397;28;20249;-76
2022/07/31 01:20:04;;;;;;;12.40;9.68;;;;;;;18.58;79.87;93835.56;5124245;28;20229;-76
2022/07/31 01:22:29;;;;;;;17.73;10.40;;;;;;;18.60;79.67;93830.59;5124211;28;20019;-76
2022/07/31 01:25:04;;;;;;;12.45;9.52;;;;;;;18.59;79.56;93825.56;5124039;28;20217;-76
2022/07/31 01:27:59;;;;;;;13.32;9.13;;;;;;;18.55;79.46;93822.03;5123843;27;20086;-76
2022/07/31 01:30:32;;;;;;;14.75;8.77;;;;;;;18.52;79.63;93831.63;5123694;28;20020;-76
2022/07/31 01:33:04;;;;;;;12.98;9.73;;;;;;;18.54;79.30;93826.66;5123782;28;20020;-77
2022/07/31 01:35:34;;;;;;;14.13;9.48;;;;;;;18.53;79.40;93816.97;5123838;28;20068;-77
2022/07/31 01:38:09;;;;;;;15.98;9.45;;;;;;;18.53;79.23;93827.00;5123792;28;20023;-76
2022/07/31 01:40:41;;;;;;;13.45;8.02;;;;;;;18.55;79.22;93830.13;5123709;28;20309;-76
2022/07/31 01:43:15;;;;;;;11.20;8.35;;;;;;;18.52;79.41;93825.44;5123474;28;20024;-76
2022/07/31 01:45:42;;;;;;;12.80;8.15;;;;;;;18.50;79.28;93825.81;5123803;28;20214;-76
2022/07/31 01:48:12;;;;;;;15.43;7.97;;;;;;;18.47;79.26;93818.44;5123248;28;20256;-76
2022/07/31 01:50:39;;;;;;;10.43;7.55;;;;;;;18.45;79.28;93815.31;5123483;28;20044;-76
2022/07/31 01:53:06;;;;;;;13.30;7.68;;;;;;;18.44;79.12;93819.19;5123423;28;20031;-77
2022/07/31 01:55:33;;;;;;;19.88;9.27;;;;;;;18.46;79.16;93811.50;5123575;28;20016;-77
2022/07/31 01:58:01;;;;;;;10.38;7.55;;;;;;;18.46;78.76;93822.28;5123290;28;20083;-76
2022/07/31 02:00:26;;;;;;;9.63;7.45;;;;;;;18.40;78.83;93812.94;5123429;28;20019;-76
2022/07/31 02:02:54;;;;;;;9.23;7.07;;;;;;;18.37;79.09;93827.94;5123432;28;20246;-76
2022/07/31 02:05:21;;;;;;;9.38;7.03;;;;;;;18.32;78.70;93822.06;5123404;28;20057;-76
2022/07/31 02:07:48;;;;;;;13.90;7.47;;;;;;;18.27;78.83;93815.06;5122612;27;20099;-76
2022/07/31 02:10:15;;;;;;;11.27;7.40;;;;;;;18.28;79.74;93819.31;5123440;28;20019;-77
2022/07/31 02:12:42;;;;;;;13.95;8.05;;;;;;;18.22;79.58;93824.25;5123271;28;20081;-77
2022/07/31 02:15:13;;;;;;;12.30;7.18;;;;;;;18.19;80.01;93827.66;5123092;28;20042;-77
2022/07/31 02:17:41;;;;;;;11.23;7.23;;;;;;;18.17;79.79;93821.06;5123010;28;20035;-77
2022/07/31 02:20:10;;;;;;;12.43;7.15;;;;;;;18.07;79.08;93819.75;5122899;28;20261;-77
2022/07/31 02:22:35;;;;;;;21.10;7.65;;;;;;;17.99;79.95;93826.97;5123016;28;20027;-77
2022/07/31 02:25:03;;;;;;;12.48;8.05;;;;;;;17.93;80.30;93825.72;5122921;28;20309;-77
2022/07/31 02:27:29;;;;;;;9.73;6.78;;;;;;;17.95;80.83;93825.34;5122898;28;20255;-77
2022/07/31 02:29:57;;;;;;;11.68;7.13;;;;;;;17.98;80.96;93825.41;5123154;28;20105;-77
2022/07/31 02:32:25;;;;;;;10.25;7.18;;;;;;;18.01;80.87;93815.81;5123376;28;20019;-76
2022/07/31 02:34:54;;;;;;;12.45;7.72;;;;;;;18.02;80.84;93825.47;5123114;28;20082;-76
2022/07/31 02:37:22;;;;;;;10.43;6.43;;;;;;;18.02;81.17;93830.84;5122901;28;20016;-77
2022/07/31 02:39:49;;;;;;;16.35;8.65;;;;;;;18.03;81.24;93832.41;5123027;28;20241;-77
2022/07/31 02:42:16;;;;;;;13.38;8.52;;;;;;;18.03;81.33;93840.50;5122905;28;20086;-76
2022/07/31 02:44:41;;;;;;;12.85;9.85;;;;;;;18.01;81.34;93842.78;5122881;28;20019;-76
2022/07/31 02:47:07;;;;;;;13.07;8.77;;;;;;;18.02;81.77;93842.41;5122665;28;20222;-76
2022/07/31 02:49:33;;;;;;;15.30;10.20;;;;;;;18.03;81.77;93838.59;5122703;28;20020;-76
2022/07/31 02:51:59;;;;;;;15.27;8.80;;;;;;;18.03;82.19;93844.00;5122919;28;20019;-76
2022/07/31 02:54:25;;;;;;;23.17;10.27;;;;;;;18.02;82.08;93838.94;5122848;28;20246;-76
2022/07/31 02:56:54;;;;;;;13.80;8.77;;;;;;;17.93;82.04;93849.19;5122717;28;20050;-76
2022/07/31 02:59:21;;;;;;;16.33;10.32;;;;;;;17.83;82.55;93843.25;5122634;28;20034;-76
2022/07/31 03:01:46;;;;;;;16.48;12.38;;;;;;;17.81;83.45;93837.41;5122846;28;20051;-76
2022/07/31 03:04:12;;;;;;;24.00;15.32;;;;;;;17.72;84.05;93834.16;5122785;28;20049;-76
2022/07/31 03:06:38;;;;;;;23.42;15.13;;;;;;;17.66;84.88;93841.00;5122614;28;20030;-76
2022/07/31 03:09:03;;;;;;;30.48;17.85;;;;;;;17.65;85.41;93836.75;5122624;28;20031;-76
2022/07/31 03:11:29;;;;;;;27.83;17.17;;;;;;;17.64;85.44;93833.25;5122618;28;20019;-76
2022/07/31 03:13:57;;;;;;;22.60;14.75;;;;;;;17.55;86.33;93835.41;5122866;28;20039;-76
2022/07/31 03:16:24;;;;;;;22.42;15.20;;;;;;;17.52;86.95;93838.81;5122697;28;20015;-76
2022/07/31 03:18:51;;;;;;;20.75;15.15;;;;;;;17.55;87.20;93842.72;5123897;28;20027;-76
2022/07/31 03:21:18;;;;;;;21.83;15.05;;;;;;;17.60;87.40;93845.13;5126352;28;20034;-76
2022/07/31 03:23:44;;;;;;;18.55;14.13;;;;;;;17.66;86.90;93846.38;5126343;28;20256;-76
2022/07/31 03:26:10;;;;;;;22.20;12.82;;;;;;;17.71;86.52;93843.41;5126191;28;20094;-76
2022/07/31 03:28:36;;;;;;;21.45;13.02;;;;;;;17.74;86.94;93848.06;5126206;28;20023;-76
2022/07/31 03:31:02;;;;;;;19.73;14.13;;;;;;;17.68;86.63;93854.13;5126053;28;20034;-76
2022/07/31 03:33:28;;;;;;;20.10;13.77;;;;;;;17.70;86.65;93855.31;5126391;28;20023;-76
2022/07/31 03:35:54;;;;;;;17.60;13.95;;;;;;;17.70;87.42;93862.63;5126388;28;20083;-76
2022/07/31 03:38:20;;;;;;;18.80;14.95;;;;;;;17.69;87.17;93855.66;5126089;28;20041;-76
2022/07/31 03:40:46;;;;;;;19.83;14.60;;;;;;;17.69;87.49;93856.47;5126037;28;20019;-76
2022/07/31 03:43:14;;;;;;;20.35;14.75;;;;;;;17.70;87.74;93852.63;5125911;28;20042;-76
2022/07/31 03:45:40;;;;;;;16.80;14.40;;;;;;;17.74;87.62;93858.06;5126011;28;20020;-76
2022/07/31 03:48:07;;;;;;;21.20;14.77;;;;;;;17.79;87.83;93857.78;5125714;28;20030;-76
2022/07/31 03:50:36;;;;;;;21.85;14.25;;;;;;;17.86;87.66;93859.84;5125810;28;20020;-76
2022/07/31 03:53:03;;;;;;;22.20;15.55;;;;;;;17.93;87.31;93857.28;5125722;28;20090;-76
2022/07/31 03:55:29;;;;;;;18.70;14.20;;;;;;;18.01;87.12;93862.44;5125747;28;20042;-76
2022/07/31 03:57:57;;;;;;;19.38;14.43;;;;;;;18.08;86.17;93864.47;5125820;28;20019;-76
2022/07/31 04:00:26;;;;;;;24.42;13.93;;;;;;;18.12;86.23;93859.16;5125636;28;20063;-76
2022/07/31 04:02:54;;;;;;;19.33;14.68;;;;;;;18.13;85.85;93864.16;5125419;28;20314;-76
2022/07/31 04:05:20;;;;;;;16.65;14.48;;;;;;;18.12;85.99;93873.41;5125549;28;20359;-76
2022/07/31 04:07:45;;;;;;;20.92;15.75;;;;;;;18.08;85.66;93864.47;5125329;28;20091;-77
2022/07/31 04:10:11;;;;;;;23.48;14.55;;;;;;;17.98;85.78;93873.94;5125223;27;20027;-77
2022/07/31 04:12:36;;;;;;;15.60;12.98;;;;;;;17.89;84.76;93870.72;5125342;28;20024;-76
2022/07/31 04:15:02;;;;;;;14.82;10.02;;;;;;;17.83;84.55;93878.31;5125301;28;20035;-76
2022/07/31 04:17:28;;;;;;;18.30;10.70;;;;;;;17.78;85.15;93875.09;5125262;28;20080;-76
2022/07/31 04:19:54;;;;;;;14.15;10.07;;;;;;;17.65;85.16;93869.09;5125333;28;20222;-76
2022/07/31 04:22:19;;;;;;;17.90;10.73;;;;;;;17.59;85.76;93878.59;5125190;28;20030;-76
2022/07/31 04:24:45;;;;;;;14.60;10.80;;;;;;;17.46;86.37;93872.56;5125046;28;20277;-76
2022/07/31 04:27:10;;;;;;;15.30;10.73;;;;;;;17.44;86.72;93872.94;5125159;28;20028;-76
2022/07/31 04:29:36;;;;;;;12.48;9.68;;;;;;;17.35;86.44;93864.28;5124467;28;20314;-76
2022/07/31 04:32:02;;;;;;;13.50;9.93;;;;;;;17.34;87.08;93865.44;5125071;28;20047;-77
2022/07/31 04:34:28;;;;;;;13.85;8.85;;;;;;;17.31;87.16;93863.44;5125090;28;20333;-75
2022/07/31 04:36:54;;;;;;;15.27;9.13;;;;;;;17.27;87.17;93862.59;5124885;28;20023;-76
2022/07/31 04:39:19;;;;;;;15.38;10.70;;;;;;;17.33;88.24;93861.19;5124852;28;20055;-76
2022/07/31 04:41:44;;;;;;;14.80;10.57;;;;;;;17.37;88.08;93856.63;5124844;28;20031;-76
2022/07/31 04:44:10;;;;;;;16.27;11.85;;;;;;;17.42;88.30;93853.66;5124748;28;20054;-76
2022/07/31 04:46:36;;;;;;;13.85;9.82;;;;;;;17.42;88.55;93859.06;5124583;28;20027;-76
2022/07/31 04:49:01;;;;;;;13.43;9.80;;;;;;;17.52;87.65;93863.06;5124761;28;20019;-76
2022/07/31 04:51:27;;;;;;;15.15;9.73;;;;;;;17.61;87.29;93862.88;5124726;28;20054;-76
2022/07/31 04:53:52;;;;;;;14.57;9.38;;;;;;;17.72;86.20;93861.13;5124552;28;20023;-76
2022/07/31 04:56:36;;;;;;;11.18;8.73;;;;;;;17.82;84.65;93857.84;5124801;28;20098;-77
2022/07/31 04:59:08;;;;;;;10.30;8.35;;;;;;;17.83;84.70;93864.84;5124803;28;20023;-76
2022/07/31 05:01:33;;;;;;;11.63;8.68;;;;;;;17.82;84.72;93871.31;5124286;28;20019;-77
2022/07/31 05:04:00;;;;;;;12.55;8.45;;;;;;;17.84;84.00;93869.06;5124767;28;20098;-76
2022/07/31 05:06:40;;;;;;;11.48;8.82;;;;;;;17.83;83.19;93875.63;5124653;28;20019;-76
2022/07/31 05:09:08;;;;;;;11.77;7.25;;;;;;;17.82;83.55;93874.00;5124429;28;20091;-76
2022/07/31 05:11:34;;;;;;;11.35;8.52;;;;;;;17.88;83.25;93871.06;5124207;28;20199;-76
2022/07/31 05:14:02;;;;;;;11.07;7.72;;;;;;;17.91;82.65;93879.22;5124295;28;20023;-76
2022/07/31 05:16:29;;;;;;;11.40;7.57;;;;;;;17.87;83.20;93880.28;5124023;28;20051;-75
2022/07/31 05:18:55;;;;;;;10.82;7.72;;;;;;;17.96;82.88;93870.03;5124022;28;20031;-76
2022/07/31 05:21:21;;;;;;;10.88;8.23;;;;;;;18.02;83.06;93877.47;5123988;28;20042;-76
2022/07/31 05:23:47;;;;;;;9.70;6.90;;;;;;;18.10;81.84;93878.38;5123670;28;20314;-76
2022/07/31 05:26:14;;;;;;;9.30;6.78;;;;;;;18.14;82.23;93863.03;5124017;28;20034;-77
2022/07/31 05:28:40;;;;;;;12.48;6.95;;;;;;;18.17;81.99;93873.09;5123732;28;20027;-76
2022/07/31 05:31:07;;;;;;;11.02;7.03;;;;;;;18.25;81.04;93865.91;5123698;28;20027;-77
2022/07/31 05:33:33;;;;;;;10.38;7.88;;;;;;;18.27;78.99;93873.63;5123982;28;20015;-76
2022/07/31 05:36:00;;;;;;;11.45;8.07;;;;;;;18.29;79.33;93865.97;5124041;28;20019;-77
2022/07/31 05:38:26;;;;;;;14.25;10.63;;;;;;;18.31;79.09;93872.53;5123771;28;20056;-76
2022/07/31 05:40:52;;;;;;;11.82;8.80;;;;;;;18.22;78.43;93878.19;5123239;28;20203;-76
2022/07/31 05:43:17;;;;;;;16.88;10.90;;;;;;;18.33;78.58;93864.09;5123506;28;20023;-76
2022/07/31 05:45:45;;;;;;;13.82;10.23;;;;;;;18.38;78.27;93874.59;5123552;28;20027;-77
2022/07/31 05:48:10;;;;;;;18.95;11.68;;;;;;;18.48;77.56;93871.28;5123536;28;20023;-76
2022/07/31 05:50:36;;;;;;;17.35;11.10;;;;;;;18.50;76.70;93868.19;5123631;28;20039;-76
2022/07/31 05:53:01;;;;;;;14.48;10.85;;;;;;;18.53;77.62;93860.16;5123425;28;20256;-77
2022/07/31 05:55:27;;;;;;;14.65;10.38;;;;;;;18.53;76.04;93865.56;5123656;28;20042;-77
2022/07/31 05:57:53;;;;;;;15.38;10.73;;;;;;;18.69;77.24;93867.34;5123266;28;20015;-76
2022/07/31 06:00:19;;;;;;;14.95;10.77;;;;;;;18.79;76.18;93864.81;5122209;28;20027;-76
2022/07/31 06:02:46;;;;;;;17.17;11.70;;;;;;;18.95;75.64;93870.03;5123282;28;20122;-76
2022/07/31 06:05:11;;;;;;;14.90;10.73;;;;;;;19.01;75.24;93860.47;5123391;28;20023;-76
2022/07/31 06:07:37;;;;;;;17.98;11.05;;;;;;;19.11;74.76;93871.78;5123204;28;20114;-76
2022/07/31 06:10:03;;;;;;;16.38;10.23;;;;;;;19.19;74.73;93873.41;5123275;28;20337;-77
2022/07/31 06:12:29;;;;;;;15.35;11.05;;;;;;;19.31;74.92;93869.72;5123334;28;20024;-76
2022/07/31 06:14:54;;;;;;;18.60;12.45;;;;;;;19.31;73.59;93859.66;5123228;28;20080;-76
2022/07/31 06:17:20;;;;;;;16.15;11.13;;;;;;;19.48;73.46;93858.34;5122851;28;20039;-77
2022/07/31 06:19:45;;;;;;;16.90;11.75;;;;;;;19.54;72.88;93866.88;5122997;28;20054;-76
2022/07/31 06:22:10;;;;;;;16.48;11.48;;;;;;;19.65;72.71;93865.06;5123047;28;20031;-76
2022/07/31 06:24:36;;;;;;;20.40;12.40;;;;;;;19.74;74.25;93871.00;5122907;28;20032;-76
2022/07/31 06:27:02;;;;;;;17.98;13.75;;;;;;;19.82;72.85;93869.13;5123281;28;20028;-76
2022/07/31 06:29:28;;;;;;;15.60;11.68;;;;;;;19.82;72.00;93861.81;5123095;28;20051;-76
2022/07/31 06:31:54;;;;;;;14.80;10.38;;;;;;;19.75;70.15;93867.13;5122805;28;20218;-76
2022/07/31 06:34:19;;;;;;;21.05;12.27;;;;;;;19.79;72.61;93867.19;5123013;28;20027;-77
2022/07/31 06:36:45;;;;;;;17.27;12.30;;;;;;;19.77;71.92;93883.78;5122868;28;20050;-76
2022/07/31 06:39:10;;;;;;;18.58;12.13;;;;;;;19.62;72.48;93869.31;5122948;28;20024;-76
2022/07/31 06:41:48;;;;;;;17.58;11.43;;;;;;;19.57;72.54;93869.63;5122833;28;20068;-77
2022/07/31 06:44:15;;;;;;;17.95;12.43;;;;;;;19.58;73.30;93867.69;5122930;28;20023;-77
2022/07/31 06:46:41;;;;;;;16.63;12.25;;;;;;;19.52;73.43;93861.06;5122687;28;20031;-76
2022/07/31 06:49:07;;;;;;;19.02;14.15;;;;;;;19.44;73.38;93857.53;5122638;28;20065;-76
2022/07/31 06:51:33;;;;;;;20.85;14.13;;;;;;;19.37;74.17;93863.59;5122682;28;20265;-76
2022/07/31 06:53:59;;;;;;;20.83;13.90;;;;;;;19.44;73.57;93860.22;5125274;28;20031;-76
2022/07/31 06:56:25;;;;;;;18.25;13.20;;;;;;;19.48;74.02;93858.34;5127034;28;20213;-76
2022/07/31 06:58:51;;;;;;;19.23;13.30;;;;;;;19.59;73.19;93870.03;5126833;28;20026;-76
2022/07/31 07:01:16;;;;;;;19.95;13.48;;;;;;;19.67;73.11;93868.19;5126486;28;20019;-75
2022/07/31 07:03:42;;;;;;;19.42;14.00;;;;;;;19.84;72.12;93861.44;5126875;28;20098;-76
2022/07/31 07:06:07;;;;;;;16.88;12.85;;;;;;;19.89;72.80;93866.50;5126746;28;20028;-76
2022/07/31 07:08:33;;;;;;;20.88;14.32;;;;;;;20.06;71.95;93873.22;5126867;28;20110;-77
2022/07/31 07:10:58;;;;;;;16.95;13.68;;;;;;;20.21;71.81;93883.03;5126809;28;20054;-77
2022/07/31 07:13:25;;;;;;;20.88;13.95;;;;;;;20.21;71.66;93883.03;5126584;27;20031;-76
2022/07/31 07:15:51;;;;;;;20.15;13.93;;;;;;;20.23;71.92;93888.06;5126647;28;20027;-77
2022/07/31 07:18:17;;;;;;;19.20;12.65;;;;;;;20.21;72.41;93877.63;5126441;27;20050;-76
2022/07/31 07:20:42;;;;;;;19.13;13.25;;;;;;;20.37;71.86;93885.50;5126534;28;20078;-76
2022/07/31 07:23:07;;;;;;;21.20;14.23;;;;;;;20.48;72.18;93880.16;5126395;28;20023;-77
2022/07/31 07:25:33;;;;;;;20.38;14.63;;;;;;;20.64;71.45;93877.22;5126532;28;20027;-77
2022/07/31 07:27:58;;;;;;;20.50;14.52;;;;;;;20.74;71.78;93875.72;5126375;28;20030;-76
2022/07/31 07:30:27;;;;;;;25.88;15.05;;;;;;;20.76;72.14;93878.81;5126320;28;20023;-76
2022/07/31 07:32:53;;;;;;;21.55;15.07;;;;;;;20.81;71.84;93890.09;5126239;28;20092;-76
2022/07/31 07:35:18;;;;;;;19.75;13.65;;;;;;;20.83;71.66;93885.06;5126261;28;20025;-77
2022/07/31 07:37:44;;;;;;;20.38;13.50;;;;;;;20.76;70.89;93895.88;5126243;28;20007;-76
2022/07/31 07:40:09;;;;;;;19.13;13.93;;;;;;;20.77;71.20;93885.81;5126209;28;20236;-76
2022/07/31 07:42:35;;;;;;;18.10;13.52;;;;;;;20.63;70.51;93892.66;5126154;28;20109;-76
2022/07/31 07:45:00;;;;;;;22.25;13.90;;;;;;;20.56;71.92;93895.31;5126101;28;20019;-76
2022/07/31 07:47:26;;;;;;;19.23;14.05;;;;;;;20.64;72.68;93888.81;5126063;28;20023;-76
2022/07/31 07:49:51;;;;;;;19.17;10.90;;;;;;;20.58;71.33;93882.19;5126065;28;20023;-76
2022/07/31 07:52:17;;;;;;;17.13;11.75;;;;;;;20.59;72.56;93897.28;5125868;28;20015;-77
2022/07/31 07:54:42;;;;;;;17.13;11.27;;;;;;;20.66;71.62;93891.16;5125749;28;20035;-76
2022/07/31 07:57:19;;;;;;;17.98;11.43;;;;;;;20.48;73.08;93891.00;5125757;28;20031;-76
2022/07/31 07:59:46;;;;;;;18.17;10.88;;;;;;;20.53;72.81;93881.75;5125881;28;20314;-76
2022/07/31 08:02:13;;;;;;;14.23;10.15;;;;;;;20.62;73.49;93891.13;5125921;28;20098;-77
2022/07/31 08:04:38;;;;;;;17.85;10.32;;;;;;;20.87;74.17;93887.81;5124713;28;20024;-77
2022/07/31 08:07:04;;;;;;;11.93;7.68;;;;;;;20.94;71.10;93895.97;5125809;28;20031;-77
2022/07/31 08:09:30;;;;;;;11.43;8.25;;;;;;;20.89;70.27;93893.63;5125607;28;20087;-77
2022/07/31 08:11:55;;;;;;;11.88;8.10;;;;;;;20.92;70.32;93909.09;5125753;28;20095;-77
2022/07/31 08:14:21;;;;;;;12.95;9.10;;;;;;;20.94;71.71;93897.91;5125608;28;20222;-77
2022/07/31 08:16:46;;;;;;;12.93;8.60;;;;;;;20.83;71.02;93906.75;5125214;28;20102;-77
2022/07/31 08:19:12;;;;;;;20.27;10.25;;;;;;;20.77;71.77;93912.91;5125473;28;20023;-77
2022/07/31 08:21:38;;;;;;;15.80;9.23;;;;;;;20.62;72.54;93912.78;5125399;28;20012;-77
2022/07/31 08:24:04;;;;;;;16.35;10.40;;;;;;;20.56;72.69;93913.50;5125314;28;20027;-77
2022/07/31 08:27:22;;;;;;;15.02;9.40;;;;;;;20.45;71.95;93929.63;5125207;27;20019;-76
2022/07/31 08:29:15;;;;;;;14.23;9.57;;;;;;;20.35;73.19;93911.38;5125171;28;20024;-76
2022/07/31 08:31:40;;;;;;;15.15;10.13;;;;;;;20.19;72.69;93909.69;5125206;28;20095;-76
2022/07/31 08:34:06;;;;;;;12.02;9.10;;;;;;;20.24;72.65;93920.16;5125377;28;20015;-76
2022/07/31 08:36:32;;;;;;;16.90;9.45;;;;;;;20.22;73.46;93933.28;5125075;28;20043;-76
2022/07/31 08:38:57;;;;;;;12.63;9.40;;;;;;;20.24;74.20;93919.41;5124853;28;20034;-76
2022/07/31 08:41:23;;;;;;;13.43;8.82;;;;;;;20.12;73.97;93920.44;5125013;28;20020;-76
2022/07/31 08:43:48;;;;;;;15.10;9.52;;;;;;;20.11;74.10;93931.63;5124953;28;20210;-77
2022/07/31 08:46:14;;;;;;;14.57;9.90;;;;;;;20.17;74.39;93925.53;5124659;28;20318;-76
2022/07/31 08:48:41;;;;;;;19.02;10.15;;;;;;;20.26;74.49;93927.91;5124681;28;20051;-76
2022/07/31 08:51:12;;;;;;;15.32;9.70;;;;;;;20.14;73.99;93925.50;5124670;28;20028;-77
2022/07/31 08:53:38;;;;;;;12.77;8.63;;;;;;;20.28;74.06;93927.56;5124895;28;20031;-76
2022/07/31 08:56:08;;;;;;;12.90;8.45;;;;;;;20.45;72.33;93918.81;5124790;28;20026;-77
2022/07/31 08:58:33;;;;;;;14.20;8.43;;;;;;;20.68;73.15;93915.94;5124820;28;20019;-76
2022/07/31 09:01:00;;;;;;;13.55;9.80;;;;;;;20.91;70.94;93918.41;5124444;28;20036;-77
2022/07/31 09:03:26;;;;;;;12.15;8.73;;;;;;;21.08;69.94;93916.94;5124754;28;20034;-76
2022/07/31 09:05:51;;;;;;;12.63;9.10;;;;;;;20.98;68.41;93909.53;5124511;28;20229;-76
2022/07/31 09:08:17;;;;;;;12.95;9.30;;;;;;;21.15;69.02;93917.00;5124222;28;20341;-76
2022/07/31 09:10:42;;;;;;;14.25;10.32;;;;;;;21.35;69.01;93914.78;5124376;28;20333;-77
2022/07/31 09:13:18;;;;;;;17.58;10.27;;;;;;;21.46;67.99;93922.22;5140396;27;20058;-76
2022/07/31 09:15:45;;;;;;;14.32;10.85;;;;;;;21.55;68.01;93920.69;5124392;28;20041;-77
2022/07/31 09:18:20;;;;;;;15.73;11.68;;;;;;;21.62;67.34;93915.31;5123856;27;20039;-77
2022/07/31 09:20:56;;;;;;;16.35;11.25;;;;;;;21.76;66.12;93920.03;5124077;28;20047;-77
2022/07/31 09:23:23;;;;;;;18.90;11.15;;;;;;;21.76;66.35;93911.88;5124215;28;20027;-76
2022/07/31 09:25:56;;;;;;;15.00;11.25;;;;;;;21.73;65.31;93909.91;5123823;28;20023;-76
2022/07/31 09:28:37;;;;;;;18.13;12.90;;;;;;;21.79;65.43;93911.09;5123981;28;20086;-76
2022/07/31 09:31:04;;;;;;;18.00;13.40;;;;;;;21.99;65.38;93903.41;5123799;28;20053;-76
2022/07/31 09:33:30;;;;;;;18.20;13.07;;;;;;;22.18;64.45;93913.13;5123984;27;20040;-76
2022/07/31 09:35:57;;;;;;;18.05;12.68;;;;;;;22.25;61.99;93898.84;5123982;28;20227;-76
2022/07/31 09:38:35;;;;;;;15.82;12.43;;;;;;;22.34;61.21;93912.78;5123865;28;20023;-76
2022/07/31 09:41:12;;;;;;;16.63;12.55;;;;;;;22.20;60.66;93891.03;5123663;28;20199;-76
2022/07/31 09:43:38;;;;;;;15.02;11.27;;;;;;;22.10;58.89;93903.41;5122795;28;20207;-76
2022/07/31 09:46:05;;;;;;;16.35;12.50;;;;;;;22.03;59.68;93887.91;5123914;28;20250;-76
2022/07/31 09:48:31;;;;;;;18.63;13.13;;;;;;;22.20;58.17;93882.88;5123679;28;20047;-76
2022/07/31 09:51:02;;;;;;;17.10;12.65;;;;;;;22.32;58.48;93898.06;5123627;28;20027;-76
2022/07/31 09:53:44;;;;;;;15.47;12.53;;;;;;;22.27;61.57;93884.84;5123668;28;20050;-76
2022/07/31 09:56:11;;;;;;;14.85;11.18;;;;;;;22.31;59.19;93891.88;5123699;28;20310;-76
2022/07/31 09:58:39;;;;;;;14.20;11.02;;;;;;;22.37;60.08;93884.13;5123632;28;20027;-76
2022/07/31 10:01:06;;;;;;;13.35;10.88;;;;;;;22.24;60.94;93892.59;5123659;28;20031;-76
2022/07/31 10:03:33;;;;;;;15.68;11.75;;;;;;;22.31;58.23;93874.78;5123592;28;20027;-76
2022/07/31 10:05:58;;;;;;;12.18;9.80;;;;;;;22.30;57.05;93881.38;5123408;28;20238;-76
2022/07/31 10:08:25;;;;;;;14.15;11.52;;;;;;;22.19;59.63;93873.22;5123242;28;20027;-76
2022/07/31 10:10:51;;;;;;;16.13;12.50;;;;;;;22.05;60.54;93887.53;5123235;28;20224;-76
2022/07/31 10:13:19;;;;;;;14.25;10.85;;;;;;;21.90;60.51;93877.78;5123474;28;20019;-76
2022/07/31 10:15:47;;;;;;;15.82;11.77;;;;;;;21.76;59.94;93882.03;5122256;28;20039;-76
2022/07/31 10:18:16;;;;;;;15.95;12.18;;;;;;;21.72;61.35;93877.78;5123198;28;20065;-76
2022/07/31 10:20:42;;;;;;;16.33;12.90;;;;;;;21.68;61.31;93875.03;5123188;28;20034;-76
2022/07/31 10:23:13;;;;;;;15.75;12.35;;;;;;;21.62;61.26;93871.91;5123309;28;20308;-76
2022/07/31 10:25:44;;;;;;;20.13;13.70;;;;;;;21.81;63.13;93865.38;5123542;28;20090;-77
2022/07/31 10:28:10;;;;;;;16.35;12.27;;;;;;;22.03;61.64;93870.84;5127087;28;20051;-76
2022/07/31 10:30:37;;;;;;;14.55;11.82;;;;;;;22.06;59.22;93864.63;5130475;27;20035;-76
2022/07/31 10:33:05;;;;;;;16.92;13.25;;;;;;;21.92;59.60;93864.63;5129907;27;20305;-76
2022/07/31 10:35:31;;;;;;;17.98;13.93;;;;;;;21.98;59.70;93863.88;5129999;27;20027;-76
2022/07/31 10:38:11;;;;;;;17.67;13.35;;;;;;;21.95;58.76;93866.59;5129820;27;20244;-76
2022/07/31 10:40:44;;;;;;;18.58;13.38;;;;;;;21.93;59.86;93871.63;5130162;27;20027;-75
2022/07/31 10:43:27;;;;;;;14.40;12.02;;;;;;;22.10;59.12;93851.84;5129863;27;20259;-75
2022/07/31 10:45:54;;;;;;;16.88;12.63;;;;;;;22.24;58.59;93853.84;5129716;27;20061;-76
2022/07/31 10:48:21;;;;;;;15.60;12.77;;;;;;;22.39;58.85;93866.25;5129878;27;20027;-76
2022/07/31 10:50:48;;;;;;;16.60;11.45;;;;;;;22.37;57.94;93851.53;5129880;27;20057;-75
2022/07/31 10:53:15;;;;;;;14.90;11.13;;;;;;;22.39;57.47;93843.78;5129605;27;20042;-76
2022/07/31 10:55:41;;;;;;;13.32;10.55;;;;;;;22.48;56.96;93841.44;5129685;28;20020;-76
2022/07/31 10:58:12;;;;;;;14.18;10.82;;;;;;;22.57;56.76;93832.88;5129886;27;20035;-76
2022/07/31 11:00:39;;;;;;;13.25;11.30;;;;;;;22.76;57.26;93837.13;5129724;27;20306;-76
2022/07/31 11:03:20;;;;;;;11.40;10.05;;;;;;;23.05;56.15;93834.38;5129657;27;20318;-77
2022/07/31 11:05:53;;;;;;;12.80;10.35;;;;;;;23.17;55.96;93836.66;5129859;27;20322;-78
2022/07/31 11:08:19;;;;;;;13.80;10.60;;;;;;;23.30;54.59;93837.75;5129482;27;20034;-78
2022/07/31 11:10:52;;;;;;;12.30;10.60;;;;;;;23.40;54.02;93828.78;5129662;27;20341;-78
2022/07/31 11:13:19;;;;;;;12.63;9.88;;;;;;;23.61;54.31;93832.56;5129808;27;20326;-77
2022/07/31 11:15:45;;;;;;;12.75;10.43;;;;;;;23.82;55.37;93827.03;5129518;27;20248;-78
2022/07/31 11:18:19;;;;;;;12.77;9.93;;;;;;;24.02;52.68;93821.88;5129559;27;20080;-78
2022/07/31 11:20:48;;;;;;;11.68;9.88;;;;;;;24.27;50.41;93834.53;5129710;27;20094;-78